createdAt,value
2023-02-09T00:00:31.926Z,15.43
2023-02-09T00:02:59.999Z,18.83
2023-02-09T00:05:28.315Z,20.80
2023-02-09T00:08:00.464Z,22.83
2023-02-09T00:10:28.662Z,24.00
2023-02-09T00:13:14.018Z,12.83
2023-02-09T00:15:49.474Z,12.10
2023-02-09T00:18:17.633Z,14.67
2023-02-09T00:20:46.008Z,17.80
2023-02-09T00:23:15.599Z,17.03
2023-02-09T00:25:43.705Z,13.47
2023-02-09T00:28:11.807Z,16.20
2023-02-09T00:30:40.225Z,17.20
2023-02-09T00:33:08.366Z,14.13
2023-02-09T00:35:36.459Z,15.83
2023-02-09T00:38:04.513Z,18.00
2023-02-09T00:40:34.017Z,14.37
2023-02-09T00:43:02.059Z,13.50
2023-02-09T00:45:30.665Z,10.93
2023-02-09T00:47:59.349Z,12.03
2023-02-09T00:50:28.258Z,13.17
2023-02-09T00:52:56.503Z,15.47
2023-02-09T00:55:24.609Z,13.07
2023-02-09T00:57:54.144Z,10.63
2023-02-09T01:00:22.468Z,11.80
2023-02-09T01:02:50.381Z,13.57
2023-02-09T01:05:18.435Z,15.83
2023-02-09T01:07:46.350Z,14.37
2023-02-09T01:10:14.476Z,14.70
2023-02-09T01:12:42.786Z,14.27
2023-02-09T01:15:12.845Z,12.73
2023-02-09T01:17:41.582Z,15.20
2023-02-09T01:20:11.154Z,14.23
2023-02-09T01:22:39.226Z,14.53
2023-02-09T01:25:08.904Z,13.10
2023-02-09T01:27:37.413Z,15.90
2023-02-09T01:30:06.442Z,16.43
2023-02-09T01:32:36.562Z,14.47
2023-02-09T01:35:04.747Z,15.93
2023-02-09T01:37:34.538Z,12.87
2023-02-09T01:40:04.499Z,13.87
2023-02-09T01:42:32.478Z,14.13
2023-02-09T01:45:12.643Z,12.83
2023-02-09T01:47:45.949Z,13.27
2023-02-09T01:50:14.408Z,13.10
2023-02-09T01:52:45.089Z,14.27
2023-02-09T01:55:14.891Z,13.80
2023-02-09T01:57:46.968Z,12.97
2023-02-09T02:00:17.404Z,14.03
2023-02-09T02:02:49.308Z,13.13
2023-02-09T02:05:18.117Z,19.27
2023-02-09T02:07:50.215Z,15.60
2023-02-09T02:10:18.428Z,19.03
2023-02-09T02:12:46.512Z,16.83
2023-02-09T02:15:14.597Z,13.83
2023-02-09T02:17:53.239Z,15.00
2023-02-09T02:20:50.983Z,16.20
2023-02-09T02:23:25.687Z,15.37
2023-02-09T02:26:25.796Z,13.03
2023-02-09T02:29:36.590Z,15.00
2023-02-09T02:32:11.531Z,13.63
2023-02-09T02:34:45.394Z,14.33
2023-02-09T02:37:19.886Z,16.10
2023-02-09T02:39:53.832Z,13.67
2023-02-09T02:42:42.147Z,18.33
2023-02-09T02:45:12.972Z,16.47
2023-02-09T02:47:45.660Z,15.50
2023-02-09T02:50:16.857Z,17.93
2023-02-09T02:52:47.595Z,15.27
2023-02-09T02:55:18.139Z,17.73
2023-02-09T02:57:52.155Z,17.37
2023-02-09T03:00:23.898Z,15.57
2023-02-09T03:02:54.892Z,17.43
2023-02-09T03:05:24.426Z,16.77
2023-02-09T03:07:52.634Z,17.23
2023-02-09T03:10:26.910Z,18.70
2023-02-09T03:13:07.236Z,16.47
2023-02-09T03:22:06.766Z,14.40
2023-02-09T03:24:38.457Z,14.90
2023-02-09T03:27:12.653Z,16.17
2023-02-09T03:29:41.132Z,14.17
2023-02-09T03:32:10.042Z,15.23
2023-02-09T03:34:39.622Z,15.40
2023-02-09T03:37:07.689Z,19.30
2023-02-09T03:39:35.724Z,18.40
2023-02-09T03:42:03.904Z,19.17
2023-02-09T03:44:32.030Z,19.60
2023-02-09T03:47:02.050Z,14.93
2023-02-09T03:49:31.548Z,19.40
2023-02-09T03:52:01.646Z,16.57
2023-02-09T03:54:30.690Z,16.40
2023-02-09T03:56:59.110Z,15.90
2023-02-09T03:59:28.222Z,23.13
2023-02-09T04:01:58.236Z,16.07
2023-02-09T04:04:26.782Z,15.33
2023-02-09T04:06:56.171Z,16.33
2023-02-09T04:09:25.936Z,13.17
2023-02-09T04:11:54.224Z,16.63
2023-02-09T04:14:22.249Z,17.30
2023-02-09T04:16:50.288Z,16.77
2023-02-09T04:19:18.475Z,14.97
2023-02-09T04:21:46.511Z,15.47
2023-02-09T04:24:14.558Z,16.40
2023-02-09T04:26:44.192Z,19.73
2023-02-09T04:29:12.215Z,18.30
2023-02-09T04:31:40.433Z,16.63
2023-02-09T04:34:08.613Z,16.67
2023-02-09T04:36:36.576Z,18.23
2023-02-09T04:39:04.753Z,16.40
2023-02-09T04:41:32.785Z,17.67
2023-02-09T04:44:02.067Z,18.70
2023-02-09T04:46:30.169Z,18.30
2023-02-09T04:48:58.121Z,17.87
2023-02-09T04:51:26.135Z,16.93
2023-02-09T04:53:54.062Z,14.67
2023-02-09T04:56:22.100Z,17.03
2023-02-09T04:59:07.645Z,19.10
2023-02-09T05:01:37.050Z,21.17
2023-02-09T05:04:05.350Z,19.20
2023-02-09T05:06:33.371Z,18.53
2023-02-09T05:09:01.368Z,17.07
2023-02-09T05:11:29.521Z,18.10
2023-02-09T05:13:57.830Z,19.80
2023-02-09T05:16:25.962Z,19.73
2023-02-09T05:18:55.530Z,21.07
2023-02-09T05:21:23.713Z,21.07
2023-02-09T05:23:51.735Z,19.33
2023-02-09T05:26:19.787Z,16.70
2023-02-09T05:28:47.995Z,19.80
2023-02-09T05:31:16.549Z,19.83
2023-02-09T05:33:44.775Z,19.63
2023-02-09T05:36:14.122Z,19.70
2023-02-09T05:38:42.273Z,21.70
2023-02-09T05:41:11.730Z,18.07
2023-02-09T05:43:39.876Z,17.67
2023-02-09T05:46:08.540Z,19.73
2023-02-09T05:48:36.891Z,22.67
2023-02-09T05:51:05.038Z,19.93
2023-02-09T05:53:34.647Z,18.43
2023-02-09T05:56:02.616Z,21.57
2023-02-09T05:58:30.553Z,20.40
2023-02-09T06:00:58.700Z,20.77
2023-02-09T06:03:26.906Z,20.27
2023-02-09T06:05:54.839Z,19.80
2023-02-09T06:08:22.934Z,21.03
2023-02-09T06:10:52.519Z,20.50
2023-02-09T06:13:20.620Z,19.00
2023-02-09T06:15:48.811Z,23.70
2023-02-09T06:18:17.022Z,21.67
2023-02-09T06:20:45.270Z,19.20
2023-02-09T06:23:13.435Z,17.80
2023-02-09T06:25:41.484Z,20.70
2023-02-09T06:28:11.265Z,19.87
2023-02-09T06:30:39.600Z,17.40
2023-02-09T06:33:08.164Z,20.03
2023-02-09T06:35:36.336Z,20.53
2023-02-09T06:38:04.344Z,21.50
2023-02-09T06:40:32.488Z,21.07
2023-02-09T06:43:00.563Z,20.87
2023-02-09T06:45:29.992Z,23.53
2023-02-09T06:47:58.007Z,19.77
2023-02-09T06:50:26.300Z,20.13
2023-02-09T06:52:54.239Z,21.13
2023-02-09T06:55:22.226Z,21.50
2023-02-09T06:57:50.291Z,19.03
2023-02-09T07:00:18.927Z,22.37
2023-02-09T07:02:48.357Z,20.10
2023-02-09T07:05:18.109Z,24.57
2023-02-09T07:07:46.601Z,23.20
2023-02-09T07:10:16.284Z,24.23
2023-02-09T07:12:44.452Z,21.77
2023-02-09T07:15:13.614Z,23.33
2023-02-09T07:17:42.275Z,26.17
2023-02-09T07:20:12.747Z,23.37
2023-02-09T07:22:41.030Z,22.33
2023-02-09T07:25:09.484Z,21.50
2023-02-09T07:27:37.542Z,22.10
2023-02-09T07:30:06.371Z,21.70
2023-02-09T07:32:38.127Z,17.80
2023-02-09T07:35:06.807Z,22.17
2023-02-09T07:37:37.338Z,19.93
2023-02-09T07:40:05.952Z,19.17
2023-02-09T07:42:34.021Z,19.00
2023-02-09T07:45:03.855Z,22.80
2023-02-09T07:47:35.671Z,23.07
2023-02-09T07:50:03.813Z,20.73
2023-02-09T07:52:36.632Z,21.40
2023-02-09T07:55:06.922Z,22.60
2023-02-09T07:57:34.982Z,22.20
2023-02-09T08:00:03.334Z,24.40
2023-02-09T08:02:39.546Z,21.03
2023-02-09T08:05:12.163Z,21.27
2023-02-09T08:07:40.407Z,22.10
2023-02-09T08:10:10.459Z,18.33
2023-02-09T08:12:55.934Z,19.97
2023-02-09T08:15:24.365Z,19.27
2023-02-09T08:17:56.310Z,22.30
2023-02-09T08:20:29.114Z,21.67
2023-02-09T08:23:03.173Z,23.03
2023-02-09T08:25:38.761Z,19.67
2023-02-09T08:28:09.814Z,18.93
2023-02-09T08:30:37.942Z,20.13
2023-02-09T08:33:05.979Z,21.73
2023-02-09T08:35:33.949Z,20.23
2023-02-09T08:38:04.948Z,20.00
2023-02-09T08:40:33.403Z,18.57
2023-02-09T08:43:02.920Z,19.50
2023-02-09T08:45:31.094Z,20.33
2023-02-09T08:48:01.035Z,20.17
2023-02-09T08:50:29.260Z,21.13
2023-02-09T08:53:02.902Z,20.80
2023-02-09T08:55:34.695Z,18.83
2023-02-09T08:58:04.896Z,18.87
2023-02-09T09:00:33.016Z,19.53
2023-02-09T09:03:07.724Z,17.40
2023-02-09T09:05:36.516Z,18.70
2023-02-09T09:08:07.667Z,18.17
2023-02-09T09:10:35.874Z,19.77
2023-02-09T09:13:08.283Z,20.70
2023-02-09T09:15:43.123Z,18.90
2023-02-09T09:18:11.518Z,24.77
2023-02-09T09:20:40.478Z,18.30
2023-02-09T09:23:08.979Z,21.60
2023-02-09T09:25:39.420Z,19.93
2023-02-09T09:28:09.785Z,18.37
2023-02-09T09:30:38.482Z,19.50
2023-02-09T09:33:06.777Z,18.77
2023-02-09T09:35:37.982Z,18.30
2023-02-09T09:38:08.576Z,21.67
2023-02-09T09:40:47.419Z,19.77
2023-02-09T09:43:24.620Z,16.97
2023-02-09T09:46:03.698Z,15.83
2023-02-09T09:48:40.830Z,15.70
2023-02-09T09:51:35.006Z,17.07
2023-02-09T09:54:06.494Z,17.43
2023-02-09T09:56:35.141Z,17.17
2023-02-09T09:59:14.701Z,20.33
2023-02-09T10:01:44.919Z,17.53
2023-02-09T10:04:33.400Z,17.20
2023-02-09T10:07:06.314Z,20.30
2023-02-09T10:09:43.199Z,19.20
2023-02-09T10:12:19.325Z,20.67
2023-02-09T10:14:57.004Z,21.23
2023-02-09T10:17:25.475Z,21.13
2023-02-09T10:20:06.049Z,20.57
2023-02-09T10:22:41.365Z,21.97
2023-02-09T10:25:39.489Z,21.63
2023-02-09T10:28:20.171Z,19.57
2023-02-09T10:30:52.098Z,21.63
2023-02-09T10:33:20.801Z,19.93
2023-02-09T10:35:52.313Z,22.37
2023-02-09T10:38:22.587Z,22.13
2023-02-09T10:40:52.340Z,22.40
2023-02-09T10:43:23.903Z,20.57
2023-02-09T10:46:00.840Z,20.03
2023-02-09T10:48:30.016Z,21.17
2023-02-09T10:51:00.087Z,19.63
2023-02-09T10:53:32.673Z,19.67
2023-02-09T10:56:06.179Z,22.00
2023-02-09T10:58:36.232Z,23.57
2023-02-09T11:01:17.824Z,21.10
2023-02-09T11:04:05.068Z,21.20
2023-02-09T11:06:37.208Z,20.60
2023-02-09T11:09:10.203Z,19.97
2023-02-09T11:11:47.070Z,20.67
2023-02-09T11:14:18.022Z,16.93
2023-02-09T11:17:19.806Z,21.90
2023-02-09T11:20:19.443Z,16.73
2023-02-09T11:23:13.344Z,19.23
2023-02-09T11:25:48.747Z,19.60
2023-02-09T11:28:28.950Z,20.20
2023-02-09T11:31:23.483Z,16.33
2023-02-09T11:33:59.098Z,19.30
2023-02-09T11:36:40.838Z,17.43
2023-02-09T11:39:13.338Z,18.83
2023-02-09T11:42:03.618Z,20.63
2023-02-09T11:44:34.532Z,16.47
2023-02-09T11:47:06.705Z,18.83
2023-02-09T11:49:44.258Z,18.80
2023-02-09T11:52:18.213Z,17.43
2023-02-09T11:54:50.800Z,22.33
2023-02-09T11:57:23.945Z,18.50
2023-02-09T11:59:57.111Z,18.50
2023-02-09T12:02:46.197Z,20.60
2023-02-09T12:05:19.287Z,20.43
2023-02-09T12:08:03.314Z,18.63
2023-02-09T12:10:37.043Z,20.70
2023-02-09T12:13:10.480Z,17.97
2023-02-09T12:15:43.294Z,17.80
2023-02-09T12:18:13.956Z,16.13
2023-02-09T12:20:53.522Z,18.57
2023-02-09T12:23:27.784Z,16.33
2023-02-09T12:25:59.806Z,17.43
2023-02-09T12:28:48.649Z,18.80
2023-02-09T12:31:23.315Z,17.07
2023-02-09T12:34:23.939Z,16.03
2023-02-09T12:37:28.245Z,17.63
2023-02-09T12:40:18.467Z,19.43
2023-02-09T12:42:48.189Z,18.47
2023-02-09T12:45:35.535Z,18.00
2023-02-09T12:48:14.160Z,17.83
2023-02-09T12:50:52.484Z,16.90
2023-02-09T12:53:48.993Z,16.80
2023-02-09T12:56:46.345Z,19.70
2023-02-09T12:59:17.858Z,15.67
2023-02-09T13:02:13.017Z,19.80
2023-02-09T13:04:46.609Z,19.40
2023-02-09T13:07:24.045Z,13.30
2023-02-09T13:09:57.053Z,12.77
2023-02-09T13:12:34.346Z,13.53
2023-02-09T13:15:07.145Z,13.33
2023-02-09T13:17:40.909Z,14.80
2023-02-09T13:20:27.598Z,12.47
2023-02-09T13:23:05.100Z,12.93
2023-02-09T13:28:33.921Z,14.80
2023-02-09T13:31:02.649Z,14.63
2023-02-09T13:33:44.818Z,14.57
2023-02-09T13:36:25.309Z,13.83
2023-02-09T13:38:54.304Z,13.47
2023-02-09T13:41:28.036Z,17.07
2023-02-09T13:43:56.879Z,15.30
2023-02-09T13:46:26.716Z,16.73
2023-02-09T13:48:55.475Z,14.60
2023-02-09T13:51:24.778Z,13.83
2023-02-09T13:53:58.302Z,13.87
2023-02-09T13:56:31.224Z,13.63
2023-02-09T13:58:59.984Z,15.67
2023-02-09T14:01:29.973Z,13.63
2023-02-09T14:04:01.107Z,16.70
2023-02-09T14:06:34.661Z,12.30
2023-02-09T14:09:07.272Z,14.30
2023-02-09T14:11:42.599Z,14.53
2023-02-09T14:14:18.624Z,13.80
2023-02-09T14:16:53.338Z,16.60
2023-02-09T14:19:27.465Z,15.33
2023-02-09T14:21:55.654Z,15.27
2023-02-09T14:24:24.650Z,15.03
2023-02-09T14:26:56.644Z,16.37
2023-02-09T14:29:29.523Z,13.00
2023-02-09T14:31:59.411Z,13.33
2023-02-09T14:34:33.249Z,17.10
2023-02-09T14:37:19.020Z,14.40
2023-02-09T14:39:54.831Z,17.87
2023-02-09T14:42:24.817Z,15.97
2023-02-09T14:44:55.424Z,15.37
2023-02-09T14:47:40.658Z,13.30
2023-02-09T14:50:16.272Z,11.90
2023-02-09T14:52:47.984Z,13.57
2023-02-09T14:56:02.871Z,11.97
2023-02-09T14:58:33.468Z,14.43
2023-02-09T15:01:03.430Z,18.03
2023-02-09T15:03:34.577Z,14.37
2023-02-09T15:06:04.942Z,12.33
2023-02-09T15:08:37.646Z,13.17
2023-02-09T15:11:27.258Z,12.67
2023-02-09T15:13:59.565Z,13.27
2023-02-09T15:16:27.814Z,13.87
2023-02-09T15:18:56.365Z,13.37
2023-02-09T15:21:26.998Z,14.13
2023-02-09T15:23:55.539Z,11.87
2023-02-09T15:26:26.919Z,13.57
2023-02-09T15:28:55.148Z,12.47
2023-02-09T15:31:29.271Z,14.70
2023-02-09T15:33:57.431Z,14.43
2023-02-09T15:36:26.975Z,13.20
2023-02-09T15:38:55.236Z,16.27
2023-02-09T15:41:40.617Z,11.77
2023-02-09T15:44:33.716Z,19.30
2023-02-09T15:47:17.042Z,14.43
2023-02-09T15:49:45.201Z,12.87
2023-02-09T15:52:13.534Z,16.03
2023-02-09T15:54:42.250Z,16.67
2023-02-09T15:57:12.601Z,15.00
2023-02-09T15:59:41.610Z,15.47
2023-02-09T16:02:14.477Z,16.43
2023-02-09T16:04:42.594Z,15.97
2023-02-09T16:07:13.381Z,17.10
2023-02-09T16:09:45.989Z,14.40
2023-02-09T16:12:14.121Z,14.67
2023-02-09T16:14:42.247Z,16.90
2023-02-09T16:17:22.301Z,13.63
2023-02-09T16:19:59.700Z,16.47
2023-02-09T16:22:35.560Z,17.50
2023-02-09T16:25:06.334Z,18.63
2023-02-09T16:27:34.639Z,16.27
2023-02-09T16:30:16.913Z,16.60
2023-02-09T16:32:47.037Z,16.73
2023-02-09T16:35:17.262Z,15.87
2023-02-09T16:37:47.920Z,15.97
2023-02-09T16:40:25.474Z,18.53
2023-02-09T16:42:54.060Z,16.47
2023-02-09T16:45:23.461Z,18.20
2023-02-09T16:47:55.070Z,15.63
2023-02-09T16:50:25.860Z,17.40
2023-02-09T16:52:55.841Z,19.13
2023-02-09T16:55:26.886Z,18.80
2023-02-09T16:57:57.205Z,21.97
2023-02-09T17:00:27.207Z,18.93
2023-02-09T17:02:58.261Z,19.87
2023-02-09T17:05:28.905Z,21.93
2023-02-09T17:08:01.325Z,15.77
2023-02-09T17:10:30.912Z,20.27
2023-02-09T17:13:01.779Z,19.33
2023-02-09T17:15:39.322Z,21.60
2023-02-09T17:18:10.379Z,20.20
2023-02-09T17:20:43.904Z,19.47
2023-02-09T17:23:16.731Z,18.37
2023-02-09T17:25:48.700Z,20.43
2023-02-09T17:28:19.757Z,23.37
2023-02-09T17:30:52.669Z,19.80
2023-02-09T17:33:24.837Z,19.60
2023-02-09T17:36:22.819Z,18.80
2023-02-09T17:38:44.798Z,22.10
2023-02-09T17:41:19.198Z,22.07
2023-02-09T17:43:47.393Z,20.43
2023-02-09T17:46:18.502Z,24.90
2023-02-09T17:48:55.510Z,22.53
2023-02-09T17:51:35.514Z,25.10
2023-02-09T17:54:04.008Z,22.57
2023-02-09T17:56:37.155Z,23.47
2023-02-09T17:59:08.275Z,23.27
2023-02-09T18:01:46.467Z,25.43
2023-02-09T18:04:18.765Z,22.20
2023-02-09T18:07:04.169Z,26.03
2023-02-09T18:09:43.650Z,23.40
2023-02-09T18:12:21.534Z,23.93
2023-02-09T18:14:50.093Z,24.53
2023-02-09T18:17:22.253Z,22.83
2023-02-09T18:19:55.709Z,24.60
2023-02-09T18:22:28.540Z,22.80
2023-02-09T18:25:02.109Z,27.67
2023-02-09T18:27:32.596Z,26.93
2023-02-09T18:30:00.643Z,22.03
2023-02-09T18:32:28.735Z,23.83
2023-02-09T18:35:03.355Z,24.40
2023-02-09T18:37:31.756Z,25.83
2023-02-09T18:40:00.104Z,29.70
2023-02-09T18:42:30.211Z,28.87
2023-02-09T18:44:58.383Z,30.83
2023-02-09T18:47:29.084Z,26.00
2023-02-09T18:50:02.374Z,29.03
2023-02-09T18:52:34.577Z,29.17
2023-02-09T18:55:07.844Z,30.63
2023-02-09T18:57:35.850Z,28.77
2023-02-09T19:00:11.050Z,30.03
2023-02-09T19:02:43.123Z,28.33
2023-02-09T19:05:13.107Z,30.37
2023-02-09T19:07:42.142Z,31.67
2023-02-09T19:10:14.470Z,30.07
2023-02-09T19:12:46.504Z,31.37
2023-02-09T19:15:15.435Z,32.67
2023-02-09T19:17:43.858Z,29.97
2023-02-09T19:20:18.390Z,27.07
2023-02-09T19:22:51.541Z,27.43
2023-02-09T19:25:22.600Z,28.57
2023-02-09T19:27:50.819Z,25.43
2023-02-09T19:30:25.236Z,28.60
2023-02-09T19:32:56.451Z,27.57
2023-02-09T19:35:32.027Z,26.30
2023-02-09T19:38:00.629Z,31.13
2023-02-09T19:40:36.527Z,28.90
2023-02-09T19:43:12.179Z,30.80
2023-02-09T19:45:44.720Z,32.67
2023-02-09T19:48:20.409Z,31.47
2023-02-09T19:50:55.957Z,33.17
2023-02-09T19:53:24.201Z,30.20
2023-02-09T19:55:53.086Z,31.37
2023-02-09T19:58:22.406Z,36.63
2023-02-09T20:00:53.483Z,29.80
2023-02-09T20:03:21.728Z,29.37
2023-02-09T20:05:50.027Z,29.63
2023-02-09T20:08:20.981Z,30.53
2023-02-09T20:10:49.591Z,27.83
2023-02-09T20:13:17.998Z,27.13
2023-02-09T20:15:50.693Z,28.70
2023-02-09T20:18:19.800Z,32.30
2023-02-09T20:20:48.363Z,28.57
2023-02-09T20:23:20.670Z,31.57
2023-02-09T20:25:48.869Z,29.33
2023-02-09T20:28:17.248Z,33.47
2023-02-09T20:30:47.441Z,33.30
2023-02-09T20:33:18.124Z,30.50
2023-02-09T20:35:46.829Z,27.57
2023-02-09T20:38:14.950Z,27.93
2023-02-09T20:40:45.276Z,29.20
2023-02-09T20:43:32.794Z,26.13
2023-02-09T20:46:23.275Z,29.80
2023-02-09T20:48:52.349Z,30.80
2023-02-09T20:51:23.458Z,29.30
2023-02-09T20:54:00.719Z,28.67
2023-02-09T20:56:30.567Z,33.33
2023-02-09T20:59:01.459Z,28.37
2023-02-09T21:01:29.630Z,29.10
2023-02-09T21:04:00.383Z,29.17
2023-02-09T21:06:32.681Z,29.33
2023-02-09T21:09:03.422Z,29.73
2023-02-09T21:11:33.304Z,27.60
2023-02-09T21:14:02.305Z,31.57
2023-02-09T21:16:36.401Z,30.50
2023-02-09T21:19:07.190Z,28.90
2023-02-09T21:21:35.348Z,28.40
2023-02-09T21:24:03.468Z,30.03
2023-02-09T21:26:41.192Z,29.43
2023-02-09T21:29:12.412Z,33.20
2023-02-09T21:31:43.374Z,28.47
2023-02-09T21:34:16.656Z,30.23
2023-02-09T21:36:48.806Z,30.23
2023-02-09T21:39:16.848Z,29.83
2023-02-09T21:42:03.859Z,33.13
2023-02-09T21:44:33.544Z,27.93
2023-02-09T21:47:01.584Z,28.80
2023-02-09T21:49:32.906Z,30.10
2023-02-09T21:52:03.923Z,32.37
2023-02-09T21:54:33.944Z,30.83
2023-02-09T21:57:03.929Z,29.60
2023-02-09T21:59:35.145Z,29.80
2023-02-09T22:02:12.463Z,32.10
2023-02-09T22:04:40.657Z,30.37
2023-02-09T22:07:08.661Z,30.63
2023-02-09T22:09:37.024Z,30.33
2023-02-09T22:12:09.639Z,28.77
2023-02-09T22:14:37.917Z,31.77
2023-02-09T22:17:16.198Z,28.00
2023-02-09T22:19:44.372Z,29.37
2023-02-09T22:22:16.905Z,30.47
2023-02-09T22:24:50.561Z,29.33
2023-02-09T22:27:22.366Z,30.40
2023-02-09T22:29:50.571Z,25.70
2023-02-09T22:32:23.094Z,32.30
2023-02-09T22:34:53.931Z,29.90
2023-02-09T22:37:22.071Z,27.87
2023-02-09T22:39:52.304Z,28.87
2023-02-09T22:42:21.864Z,28.30
2023-02-09T22:44:49.932Z,32.47
2023-02-09T22:47:18.177Z,28.73
2023-02-09T22:49:50.362Z,25.93
2023-02-09T22:52:18.939Z,31.57
2023-02-09T22:54:47.031Z,28.80
2023-02-09T22:57:15.272Z,31.80
2023-02-09T22:59:45.151Z,28.97
2023-02-09T23:02:13.321Z,28.63
2023-02-09T23:04:41.532Z,30.83
2023-02-09T23:07:12.689Z,37.67
2023-02-09T23:09:40.962Z,31.63
2023-02-09T23:12:09.143Z,30.37
2023-02-09T23:14:37.546Z,31.40
2023-02-09T23:17:07.045Z,31.40
2023-02-09T23:19:35.195Z,33.97
2023-02-09T23:22:03.317Z,31.17
2023-02-09T23:24:31.344Z,31.10
2023-02-09T23:26:59.472Z,31.67
2023-02-09T23:29:28.172Z,32.57
2023-02-09T23:31:56.328Z,32.70
2023-02-09T23:34:25.927Z,30.67
2023-02-09T23:36:53.887Z,28.73
2023-02-09T23:39:23.489Z,28.53
2023-02-09T23:41:51.609Z,28.73
2023-02-09T23:44:19.831Z,23.33
2023-02-09T23:46:48.090Z,28.23
2023-02-09T23:49:16.084Z,29.37
2023-02-09T23:51:46.570Z,28.43
2023-02-09T23:54:14.937Z,31.30
2023-02-09T23:56:44.467Z,30.27
2023-02-09T23:59:15.561Z,34.23
